Flight Track Log - Related Links

Times and Time Zones

All times are in EDT time to prevent confusion due to time zone crossing. See the KAP720 flight status page for this flight to view local times or setup timezone preferences in your user account.

Time Position Orientation Groundspeed Altitude Reporting Facility
EDT Latitude Longitude Course Direction KTS MPH feet Rate Location/Type
Fri 06:34:00 PM 42.7131 -73.8106 190° South 113 130 1,400  Level Boston Center
Fri 06:35:00 PM 42.7189 -73.8558 280° West 144 166 1,900 545 Climbing Boston Center
Fri 06:36:01 PM 42.7561 -73.8794 335° Northwest 144 166 2,500 590 Climbing Boston Center
Fri 06:37:02 PM 42.7889 -73.9114 324° Northwest 140 161 3,100 614 Climbing Boston Center
Fri 06:38:08 PM 42.8261 -73.9406 330° Northwest 139 160 3,800 567 Climbing Boston Center
Fri 06:39:09 PM 42.8569 -73.9667 328° Northwest 136 157 4,300 492 Climbing Boston Center
Fri 06:40:10 PM 42.8919 -73.9931 331° Northwest 145 167 4,800 496 Climbing Boston Center
Fri 06:41:10 PM 42.9292 -74.0225 330° Northwest 148 170 5,300 496 Climbing Boston Center
Fri 06:42:11 PM 42.9642 -74.0517 329° Northwest 149 171 5,800 492 Climbing Boston Center
Fri 06:43:12 PM 42.9992 -74.0781 331° Northwest 152 175 6,300 522 Climbing Boston Center
Fri 06:44:06 PM 43.0344 -74.1047 331° Northwest 147 169 6,800 541 Climbing Boston Center
Fri 06:45:03 PM 43.0653 -74.1311 328° Northwest 150 173 7,300 462 Climbing Boston Center
Fri 06:46:03 PM 43.0900 -74.1489 332° Northwest 150 173 7,700 400 Climbing Boston Center
Fri 06:47:03 PM 43.1372 -74.1900 328° Northwest 155 178 8,100 200 Climbing Boston Center
Fri 06:48:03 PM 43.1783 -74.2253 328° Northwest 166 191 8,100  Level Boston Center
Fri 06:49:03 PM 43.2114 -74.2519 330° Northwest 166 191 8,100  Level Boston Center
Fri 06:50:03 PM 43.2608 -74.2906 330° Northwest 166 191 8,100  Level Boston Center
Fri 06:51:03 PM 43.2978 -74.3231 327° Northwest 166 191 8,100  Level Boston Center
Fri 06:52:03 PM 43.3367 -74.3528 331° Northwest 166 191 8,100  Level Boston Center
Fri 06:53:03 PM 43.3781 -74.3853 330° Northwest 166 191 8,100 -45 Level Boston Center
Fri 06:54:15 PM 43.4189 -74.4211 327° Northwest 166 191 8,000 -45 Descending Boston Center
Fri 06:55:15 PM 43.4664 -74.4569 331° Northwest 166 191 8,000  Level Boston Center
Fri 06:56:15 PM 43.5053 -74.4869 331° Northwest 166 191 8,000  Level Boston Center
Fri 06:57:15 PM 43.5444 -74.5197 329° Northwest 166 191 8,000  Level Boston Center
Fri 06:58:27 PM 43.5792 -74.5494 328° Northwest 166 191 8,000  Level Boston Center
Fri 06:59:27 PM 43.6286 -74.5886 330° Northwest 166 191 8,000  Level Boston Center
Fri 07:00:27 PM 43.6594 -74.6125 331° Northwest 166 191 8,000  Level Boston Center
Fri 07:01:27 PM 43.7044 -74.6544 326° Northwest 166 191 8,000  Level Boston Center
Fri 07:02:27 PM 43.7433 -74.6847 331° Northwest 166 191 8,000  Level Boston Center
Fri 07:03:27 PM 43.7825 -74.7178 329° Northwest 166 191 8,000  Level Boston Center
Fri 07:04:27 PM 43.8236 -74.7453 334° Northwest 166 191 8,000  Level Boston Center
Fri 07:05:27 PM 43.8625 -74.7783 329° Northwest 166 191 8,000  Level Boston Center
Fri 07:06:27 PM 43.8911 -74.8025 329° Northwest 161 185 8,000  Level Boston Center
Fri 07:07:27 PM 43.9361 -74.8389 330° Northwest 161 185 8,000  Level Boston Center
Fri 07:08:27 PM 43.9711 -74.8692 328° Northwest 161 185 8,000  Level Boston Center
Fri 07:09:27 PM 44.0078 -74.8994 329° Northwest 161 185 8,000  Level Boston Center
Fri 07:10:27 PM 44.0386 -74.9239 330° Northwest 156 180 8,000  Level Boston Center
Fri 07:11:27 PM 44.0733 -74.9542 328° Northwest 156 180 8,000  Level Boston Center
Fri 07:12:27 PM 44.1183 -74.9936 328° Northwest 156 180 8,000  Level Boston Center
Fri 07:13:27 PM 44.1553 -75.0242 329° Northwest 156 180 8,000  Level Boston Center
Fri 07:14:27 PM 44.1839 -75.0458 331° Northwest 156 180 8,000 -450 Level Boston Center
Fri 07:15:27 PM 44.2350 -75.0886 329° Northwest 168 193 7,100 -750 Descending Boston Center
Fri 07:16:27 PM 44.2800 -75.1253 330° Northwest 174 200 6,500 -650 Descending Boston Center
Fri 07:17:27 PM 44.3269 -75.1653 329° Northwest 185 213 5,800 -650 Descending Boston Center
Fri 07:18:27 PM 44.3781 -75.2083 329° Northwest 185 213 5,200 -600 Descending Boston Center

Login

Don't have an account? Register now (free) for customized features, flight alerts, and more!